sensor_id;sensor_type;location;lat;lon;timestamp;temperature;humidity
11748;DHT22;5931;48.832;9.072;2023-03-29T00:00:26;5.50;99.90
11748;DHT22;5931;48.832;9.072;2023-03-29T00:02:52;5.50;99.90
11748;DHT22;5931;48.832;9.072;2023-03-29T00:05:21;5.50;99.90
11748;DHT22;5931;48.832;9.072;2023-03-29T00:08:08;5.50;99.90
11748;DHT22;5931;48.832;9.072;2023-03-29T00:10:34;5.60;99.90
11748;DHT22;5931;48.832;9.072;2023-03-29T00:13:00;5.50;99.90
11748;DHT22;5931;48.832;9.072;2023-03-29T00:15:26;5.60;99.90
11748;DHT22;5931;48.832;9.072;2023-03-29T00:17:52;5.50;99.90
11748;DHT22;5931;48.832;9.072;2023-03-29T00:20:17;5.50;99.90
11748;DHT22;5931;48.832;9.072;2023-03-29T00:22:43;5.50;99.90
11748;DHT22;5931;48.832;9.072;2023-03-29T00:25:11;5.50;99.90
11748;DHT22;5931;48.832;9.072;2023-03-29T00:27:38;5.50;99.90
11748;DHT22;5931;48.832;9.072;2023-03-29T00:30:05;5.50;99.90
11748;DHT22;5931;48.832;9.072;2023-03-29T00:32:32;5.40;99.90
11748;DHT22;5931;48.832;9.072;2023-03-29T00:34:58;5.50;99.90
11748;DHT22;5931;48.832;9.072;2023-03-29T00:37:29;5.50;99.90
11748;DHT22;5931;48.832;9.072;2023-03-29T00:39:56;5.40;99.90
11748;DHT22;5931;48.832;9.072;2023-03-29T00:42:23;5.40;99.90
11748;DHT22;5931;48.832;9.072;2023-03-29T00:44:54;5.40;99.90
11748;DHT22;5931;48.832;9.072;2023-03-29T00:52:38;5.40;99.90
11748;DHT22;5931;48.832;9.072;2023-03-29T00:55:09;5.40;99.90
11748;DHT22;5931;48.832;9.072;2023-03-29T00:57:39;5.40;99.90
11748;DHT22;5931;48.832;9.072;2023-03-29T01:00:05;5.30;99.90
11748;DHT22;5931;48.832;9.072;2023-03-29T01:02:35;5.40;99.90
11748;DHT22;5931;48.832;9.072;2023-03-29T01:05:17;5.40;99.90
11748;DHT22;5931;48.832;9.072;2023-03-29T01:08:15;5.40;99.90
11748;DHT22;5931;48.832;9.072;2023-03-29T01:13:27;5.40;99.90
11748;DHT22;5931;48.832;9.072;2023-03-29T01:15:57;5.50;99.90
11748;DHT22;5931;48.832;9.072;2023-03-29T01:18:23;5.50;99.90
11748;DHT22;5931;48.832;9.072;2023-03-29T01:21:06;5.50;99.90
11748;DHT22;5931;48.832;9.072;2023-03-29T01:32:29;5.50;99.90
11748;DHT22;5931;48.832;9.072;2023-03-29T01:34:54;5.50;99.90
11748;DHT22;5931;48.832;9.072;2023-03-29T01:37:35;5.50;99.90
11748;DHT22;5931;48.832;9.072;2023-03-29T01:40:02;5.50;99.90
11748;DHT22;5931;48.832;9.072;2023-03-29T01:42:53;5.50;99.90
11748;DHT22;5931;48.832;9.072;2023-03-29T01:45:37;5.50;99.90
11748;DHT22;5931;48.832;9.072;2023-03-29T01:56:24;5.30;99.90
11748;DHT22;5931;48.832;9.072;2023-03-29T01:58:54;5.30;99.90
11748;DHT22;5931;48.832;9.072;2023-03-29T02:01:24;5.20;99.90
11748;DHT22;5931;48.832;9.072;2023-03-29T02:03:54;5.10;99.90
11748;DHT22;5931;48.832;9.072;2023-03-29T02:06:24;5.10;99.90
11748;DHT22;5931;48.832;9.072;2023-03-29T02:08:52;5.10;99.90
11748;DHT22;5931;48.832;9.072;2023-03-29T02:11:20;5.10;99.90
11748;DHT22;5931;48.832;9.072;2023-03-29T02:13:47;5.10;99.90
11748;DHT22;5931;48.832;9.072;2023-03-29T02:16:13;5.00;99.90
11748;DHT22;5931;48.832;9.072;2023-03-29T02:18:42;5.00;99.90
11748;DHT22;5931;48.832;9.072;2023-03-29T02:21:13;5.00;99.90
11748;DHT22;5931;48.832;9.072;2023-03-29T02:23:43;5.10;99.90
11748;DHT22;5931;48.832;9.072;2023-03-29T02:26:12;5.00;99.90
11748;DHT22;5931;48.832;9.072;2023-03-29T02:28:39;5.00;99.90
11748;DHT22;5931;48.832;9.072;2023-03-29T02:36:19;4.90;99.90
11748;DHT22;5931;48.832;9.072;2023-03-29T02:38:47;5.00;99.90
11748;DHT22;5931;48.832;9.072;2023-03-29T02:41:13;5.10;99.90
11748;DHT22;5931;48.832;9.072;2023-03-29T02:43:41;5.10;99.90
11748;DHT22;5931;48.832;9.072;2023-03-29T02:46:09;5.00;99.90
11748;DHT22;5931;48.832;9.072;2023-03-29T02:48:37;5.00;99.90
11748;DHT22;5931;48.832;9.072;2023-03-29T02:51:09;4.90;99.90
11748;DHT22;5931;48.832;9.072;2023-03-29T02:53:44;4.90;99.90
11748;DHT22;5931;48.832;9.072;2023-03-29T02:56:12;4.70;99.90
11748;DHT22;5931;48.832;9.072;2023-03-29T02:58:38;4.50;99.90
11748;DHT22;5931;48.832;9.072;2023-03-29T03:01:04;4.50;99.90
11748;DHT22;5931;48.832;9.072;2023-03-29T03:03:31;4.40;99.90
11748;DHT22;5931;48.832;9.072;2023-03-29T03:05:59;4.30;99.90
11748;DHT22;5931;48.832;9.072;2023-03-29T03:08:26;4.10;99.90
11748;DHT22;5931;48.832;9.072;2023-03-29T03:10:52;4.00;99.90
11748;DHT22;5931;48.832;9.072;2023-03-29T03:13:18;3.90;99.90
11748;DHT22;5931;48.832;9.072;2023-03-29T03:15:44;4.00;99.90
11748;DHT22;5931;48.832;9.072;2023-03-29T03:18:14;4.00;99.90
11748;DHT22;5931;48.832;9.072;2023-03-29T03:20:41;3.90;99.90
11748;DHT22;5931;48.832;9.072;2023-03-29T03:23:06;4.10;99.90
11748;DHT22;5931;48.832;9.072;2023-03-29T03:25:34;4.20;99.90
11748;DHT22;5931;48.832;9.072;2023-03-29T03:28:00;4.20;99.90
11748;DHT22;5931;48.832;9.072;2023-03-29T03:30:27;4.30;99.90
11748;DHT22;5931;48.832;9.072;2023-03-29T03:33:13;4.40;99.90
11748;DHT22;5931;48.832;9.072;2023-03-29T03:35:57;4.60;99.90
11748;DHT22;5931;48.832;9.072;2023-03-29T03:38:32;4.70;99.90
11748;DHT22;5931;48.832;9.072;2023-03-29T03:40:59;4.90;99.90
11748;DHT22;5931;48.832;9.072;2023-03-29T03:43:26;5.10;99.90
11748;DHT22;5931;48.832;9.072;2023-03-29T03:45:53;5.30;99.90
11748;DHT22;5931;48.832;9.072;2023-03-29T03:48:22;5.40;99.90
11748;DHT22;5931;48.832;9.072;2023-03-29T03:50:56;5.40;99.90
11748;DHT22;5931;48.832;9.072;2023-03-29T03:53:25;5.40;99.90
11748;DHT22;5931;48.832;9.072;2023-03-29T03:56:17;5.50;99.90
11748;DHT22;5931;48.832;9.072;2023-03-29T03:59:06;5.50;99.90
11748;DHT22;5931;48.832;9.072;2023-03-29T04:01:38;5.50;99.90
11748;DHT22;5931;48.832;9.072;2023-03-29T04:04:13;5.50;99.90
11748;DHT22;5931;48.832;9.072;2023-03-29T04:06:49;5.50;99.90
11748;DHT22;5931;48.832;9.072;2023-03-29T04:09:33;5.60;99.90
11748;DHT22;5931;48.832;9.072;2023-03-29T04:12:22;5.60;99.90
11748;DHT22;5931;48.832;9.072;2023-03-29T04:14:48;5.70;99.90
11748;DHT22;5931;48.832;9.072;2023-03-29T04:17:25;5.70;99.90
11748;DHT22;5931;48.832;9.072;2023-03-29T04:19:57;5.80;99.90
11748;DHT22;5931;48.832;9.072;2023-03-29T04:22:24;5.90;99.90
11748;DHT22;5931;48.832;9.072;2023-03-29T04:24:50;5.90;99.90
11748;DHT22;5931;48.832;9.072;2023-03-29T04:27:43;5.90;99.90
11748;DHT22;5931;48.832;9.072;2023-03-29T04:30:19;6.10;99.90
11748;DHT22;5931;48.832;9.072;2023-03-29T04:33:14;6.40;99.90
11748;DHT22;5931;48.832;9.072;2023-03-29T04:35:44;6.50;99.90
11748;DHT22;5931;48.832;9.072;2023-03-29T04:38:13;6.70;99.90
11748;DHT22;5931;48.832;9.072;2023-03-29T04:40:42;6.70;99.90
11748;DHT22;5931;48.832;9.072;2023-03-29T04:43:19;6.80;99.90
11748;DHT22;5931;48.832;9.072;2023-03-29T04:45:54;6.90;99.90
11748;DHT22;5931;48.832;9.072;2023-03-29T04:48:56;6.90;99.90
11748;DHT22;5931;48.832;9.072;2023-03-29T04:51:31;7.00;99.90
11748;DHT22;5931;48.832;9.072;2023-03-29T04:53:58;7.00;99.90
11748;DHT22;5931;48.832;9.072;2023-03-29T04:56:24;7.00;99.90
11748;DHT22;5931;48.832;9.072;2023-03-29T04:59:09;7.00;99.90
11748;DHT22;5931;48.832;9.072;2023-03-29T05:01:35;7.00;99.90
11748;DHT22;5931;48.832;9.072;2023-03-29T05:04:01;7.10;99.90
11748;DHT22;5931;48.832;9.072;2023-03-29T05:06:34;7.00;99.90
11748;DHT22;5931;48.832;9.072;2023-03-29T05:09:00;7.10;99.90
11748;DHT22;5931;48.832;9.072;2023-03-29T05:11:51;7.10;99.90
11748;DHT22;5931;48.832;9.072;2023-03-29T05:14:18;7.20;99.90
11748;DHT22;5931;48.832;9.072;2023-03-29T05:16:44;7.10;99.90
11748;DHT22;5931;48.832;9.072;2023-03-29T05:19:12;7.10;99.90
11748;DHT22;5931;48.832;9.072;2023-03-29T05:21:43;7.00;99.90
11748;DHT22;5931;48.832;9.072;2023-03-29T05:24:12;7.10;99.90
11748;DHT22;5931;48.832;9.072;2023-03-29T05:26:58;7.10;99.90
11748;DHT22;5931;48.832;9.072;2023-03-29T05:29:31;7.20;99.90
11748;DHT22;5931;48.832;9.072;2023-03-29T05:32:15;7.20;99.90
11748;DHT22;5931;48.832;9.072;2023-03-29T05:34:43;7.20;99.90
11748;DHT22;5931;48.832;9.072;2023-03-29T05:37:09;7.40;99.90
11748;DHT22;5931;48.832;9.072;2023-03-29T05:39:46;7.50;99.90
11748;DHT22;5931;48.832;9.072;2023-03-29T05:42:14;7.50;99.90
11748;DHT22;5931;48.832;9.072;2023-03-29T05:44:53;7.50;99.90
11748;DHT22;5931;48.832;9.072;2023-03-29T05:47:19;7.60;99.90
11748;DHT22;5931;48.832;9.072;2023-03-29T05:49:45;7.60;99.90
11748;DHT22;5931;48.832;9.072;2023-03-29T05:52:13;7.60;99.90
11748;DHT22;5931;48.832;9.072;2023-03-29T05:54:40;7.60;99.90
11748;DHT22;5931;48.832;9.072;2023-03-29T05:57:06;7.50;99.90
11748;DHT22;5931;48.832;9.072;2023-03-29T05:59:33;7.60;99.90
11748;DHT22;5931;48.832;9.072;2023-03-29T06:01:58;7.70;99.90
11748;DHT22;5931;48.832;9.072;2023-03-29T06:04:25;7.70;99.90
11748;DHT22;5931;48.832;9.072;2023-03-29T06:07:19;7.60;99.90
11748;DHT22;5931;48.832;9.072;2023-03-29T06:10:05;7.60;99.90
11748;DHT22;5931;48.832;9.072;2023-03-29T06:12:31;7.60;99.90
11748;DHT22;5931;48.832;9.072;2023-03-29T06:14:58;7.60;99.90
11748;DHT22;5931;48.832;9.072;2023-03-29T06:17:52;7.60;99.90
11748;DHT22;5931;48.832;9.072;2023-03-29T06:20:18;7.60;99.90
11748;DHT22;5931;48.832;9.072;2023-03-29T06:22:48;7.70;99.90
11748;DHT22;5931;48.832;9.072;2023-03-29T06:25:14;7.70;99.90
11748;DHT22;5931;48.832;9.072;2023-03-29T06:27:44;7.70;99.90
11748;DHT22;5931;48.832;9.072;2023-03-29T06:30:12;7.80;99.90
11748;DHT22;5931;48.832;9.072;2023-03-29T06:32:41;7.90;99.90
11748;DHT22;5931;48.832;9.072;2023-03-29T06:35:17;8.00;99.90
11748;DHT22;5931;48.832;9.072;2023-03-29T06:37:49;8.10;99.90
11748;DHT22;5931;48.832;9.072;2023-03-29T06:40:31;8.20;99.90
11748;DHT22;5931;48.832;9.072;2023-03-29T06:42:59;8.40;99.90
11748;DHT22;5931;48.832;9.072;2023-03-29T06:45:43;8.50;99.90
11748;DHT22;5931;48.832;9.072;2023-03-29T06:48:20;8.70;99.90
11748;DHT22;5931;48.832;9.072;2023-03-29T06:50:47;8.70;99.90
11748;DHT22;5931;48.832;9.072;2023-03-29T06:53:15;8.80;99.90
11748;DHT22;5931;48.832;9.072;2023-03-29T06:55:43;9.00;99.90
11748;DHT22;5931;48.832;9.072;2023-03-29T06:58:36;9.00;99.90
11748;DHT22;5931;48.832;9.072;2023-03-29T07:01:08;9.00;99.90
11748;DHT22;5931;48.832;9.072;2023-03-29T07:03:46;9.00;99.90
11748;DHT22;5931;48.832;9.072;2023-03-29T07:06:16;9.00;99.90
11748;DHT22;5931;48.832;9.072;2023-03-29T07:08:47;9.10;99.90
11748;DHT22;5931;48.832;9.072;2023-03-29T07:11:23;9.30;99.90
11748;DHT22;5931;48.832;9.072;2023-03-29T07:13:55;9.40;99.90
11748;DHT22;5931;48.832;9.072;2023-03-29T07:16:21;9.50;99.90
11748;DHT22;5931;48.832;9.072;2023-03-29T07:19:04;9.40;99.90
11748;DHT22;5931;48.832;9.072;2023-03-29T07:21:56;9.50;99.90
11748;DHT22;5931;48.832;9.072;2023-03-29T07:24:33;9.60;99.90
11748;DHT22;5931;48.832;9.072;2023-03-29T07:26:59;9.60;99.90
11748;DHT22;5931;48.832;9.072;2023-03-29T07:29:26;9.70;99.90
11748;DHT22;5931;48.832;9.072;2023-03-29T07:31:56;9.70;99.90
11748;DHT22;5931;48.832;9.072;2023-03-29T07:34:40;9.80;99.90
11748;DHT22;5931;48.832;9.072;2023-03-29T07:37:08;9.70;99.90
11748;DHT22;5931;48.832;9.072;2023-03-29T07:39:34;9.80;99.90
11748;DHT22;5931;48.832;9.072;2023-03-29T07:42:25;9.80;99.90
11748;DHT22;5931;48.832;9.072;2023-03-29T07:44:52;9.90;99.90
11748;DHT22;5931;48.832;9.072;2023-03-29T07:47:19;10.00;99.90
11748;DHT22;5931;48.832;9.072;2023-03-29T07:53:32;10.40;99.90
11748;DHT22;5931;48.832;9.072;2023-03-29T07:56:01;10.60;99.90
11748;DHT22;5931;48.832;9.072;2023-03-29T07:58:39;10.60;99.90
11748;DHT22;5931;48.832;9.072;2023-03-29T08:01:05;10.70;99.90
11748;DHT22;5931;48.832;9.072;2023-03-29T08:03:51;10.90;99.90
11748;DHT22;5931;48.832;9.072;2023-03-29T08:06:18;11.10;99.90
11748;DHT22;5931;48.832;9.072;2023-03-29T08:08:43;11.30;99.90
11748;DHT22;5931;48.832;9.072;2023-03-29T08:11:13;11.60;99.90
11748;DHT22;5931;48.832;9.072;2023-03-29T08:13:50;11.70;99.90
11748;DHT22;5931;48.832;9.072;2023-03-29T08:16:25;12.00;99.90
11748;DHT22;5931;48.832;9.072;2023-03-29T08:18:59;12.30;99.90
11748;DHT22;5931;48.832;9.072;2023-03-29T08:21:36;12.50;99.90
11748;DHT22;5931;48.832;9.072;2023-03-29T08:24:01;12.70;99.90
11748;DHT22;5931;48.832;9.072;2023-03-29T08:26:36;12.80;99.90
11748;DHT22;5931;48.832;9.072;2023-03-29T08:29:02;12.80;99.90
11748;DHT22;5931;48.832;9.072;2023-03-29T08:31:28;12.80;99.90
11748;DHT22;5931;48.832;9.072;2023-03-29T08:33:54;12.80;99.90
11748;DHT22;5931;48.832;9.072;2023-03-29T08:36:36;12.70;99.90
11748;DHT22;5931;48.832;9.072;2023-03-29T08:39:09;12.70;99.90
11748;DHT22;5931;48.832;9.072;2023-03-29T08:47:19;12.70;99.90
11748;DHT22;5931;48.832;9.072;2023-03-29T08:49:50;12.70;99.90
11748;DHT22;5931;48.832;9.072;2023-03-29T08:52:27;12.60;99.90
11748;DHT22;5931;48.832;9.072;2023-03-29T08:54:57;12.70;99.90
11748;DHT22;5931;48.832;9.072;2023-03-29T08:57:46;13.00;99.90
11748;DHT22;5931;48.832;9.072;2023-03-29T09:00:24;13.20;99.90
11748;DHT22;5931;48.832;9.072;2023-03-29T09:02:57;13.20;99.90
11748;DHT22;5931;48.832;9.072;2023-03-29T09:05:32;13.40;99.90
11748;DHT22;5931;48.832;9.072;2023-03-29T09:08:12;13.50;99.90
11748;DHT22;5931;48.832;9.072;2023-03-29T09:27:27;14.70;99.90
11748;DHT22;5931;48.832;9.072;2023-03-29T09:33:57;14.70;99.90
11748;DHT22;5931;48.832;9.072;2023-03-29T09:36:11;14.80;99.90
11748;DHT22;5931;48.832;9.072;2023-03-29T09:38:45;14.90;99.90
11748;DHT22;5931;48.832;9.072;2023-03-29T09:44:05;15.40;99.90
11748;DHT22;5931;48.832;9.072;2023-03-29T09:46:42;15.60;99.60
11748;DHT22;5931;48.832;9.072;2023-03-29T09:49:23;15.90;99.90
11748;DHT22;5931;48.832;9.072;2023-03-29T09:51:50;16.00;99.90
11748;DHT22;5931;48.832;9.072;2023-03-29T09:54:18;16.30;99.90
11748;DHT22;5931;48.832;9.072;2023-03-29T09:57:03;16.30;99.40
11748;DHT22;5931;48.832;9.072;2023-03-29T09:59:28;16.30;98.80
11748;DHT22;5931;48.832;9.072;2023-03-29T10:02:05;16.50;97.40
11748;DHT22;5931;48.832;9.072;2023-03-29T10:04:32;16.50;99.10
11748;DHT22;5931;48.832;9.072;2023-03-29T10:06:59;16.60;96.80
11748;DHT22;5931;48.832;9.072;2023-03-29T10:09:28;16.50;97.50
11748;DHT22;5931;48.832;9.072;2023-03-29T10:12:05;16.90;96.20
11748;DHT22;5931;48.832;9.072;2023-03-29T10:14:34;16.30;95.80
11748;DHT22;5931;48.832;9.072;2023-03-29T10:17:04;16.50;97.00
11748;DHT22;5931;48.832;9.072;2023-03-29T10:19:34;16.20;98.20
11748;DHT22;5931;48.832;9.072;2023-03-29T10:22:06;16.10;97.40
11748;DHT22;5931;48.832;9.072;2023-03-29T10:24:33;16.10;97.30
11748;DHT22;5931;48.832;9.072;2023-03-29T10:27:03;16.20;98.70
11748;DHT22;5931;48.832;9.072;2023-03-29T10:29:41;16.10;96.40
11748;DHT22;5931;48.832;9.072;2023-03-29T10:34:49;16.30;97.70
11748;DHT22;5931;48.832;9.072;2023-03-29T10:37:19;16.40;96.60
11748;DHT22;5931;48.832;9.072;2023-03-29T10:39:47;16.80;96.10
11748;DHT22;5931;48.832;9.072;2023-03-29T10:42:18;17.00;98.20
11748;DHT22;5931;48.832;9.072;2023-03-29T10:44:52;17.10;97.60
11748;DHT22;5931;48.832;9.072;2023-03-29T10:47:19;17.20;96.50
11748;DHT22;5931;48.832;9.072;2023-03-29T10:49:51;16.90;94.80
11748;DHT22;5931;48.832;9.072;2023-03-29T10:52:18;16.70;96.30
11748;DHT22;5931;48.832;9.072;2023-03-29T10:54:45;16.70;96.70
11748;DHT22;5931;48.832;9.072;2023-03-29T10:57:14;16.90;98.40
11748;DHT22;5931;48.832;9.072;2023-03-29T11:00:00;16.90;97.80
11748;DHT22;5931;48.832;9.072;2023-03-29T11:03:03;16.90;96.80
11748;DHT22;5931;48.832;9.072;2023-03-29T11:05:41;16.80;98.70
11748;DHT22;5931;48.832;9.072;2023-03-29T11:13:58;16.60;96.80
11748;DHT22;5931;48.832;9.072;2023-03-29T11:16:38;16.70;99.20
11748;DHT22;5931;48.832;9.072;2023-03-29T11:19:19;16.90;98.50
11748;DHT22;5931;48.832;9.072;2023-03-29T11:21:53;17.10;98.50
11748;DHT22;5931;48.832;9.072;2023-03-29T11:29:51;17.90;96.90
11748;DHT22;5931;48.832;9.072;2023-03-29T11:32:40;17.90;95.80
11748;DHT22;5931;48.832;9.072;2023-03-29T11:35:32;18.10;97.00
11748;DHT22;5931;48.832;9.072;2023-03-29T11:45:52;18.50;97.10
11748;DHT22;5931;48.832;9.072;2023-03-29T11:48:36;18.50;95.70
11748;DHT22;5931;48.832;9.072;2023-03-29T11:51:23;18.30;97.00
11748;DHT22;5931;48.832;9.072;2023-03-29T11:54:04;18.20;97.00
11748;DHT22;5931;48.832;9.072;2023-03-29T11:56:58;18.60;97.20
11748;DHT22;5931;48.832;9.072;2023-03-29T11:59:36;18.40;96.10
11748;DHT22;5931;48.832;9.072;2023-03-29T12:04:45;19.00;95.20
11748;DHT22;5931;48.832;9.072;2023-03-29T12:07:21;19.30;97.30
11748;DHT22;5931;48.832;9.072;2023-03-29T12:09:55;19.50;94.80
11748;DHT22;5931;48.832;9.072;2023-03-29T12:12:31;19.60;94.50
11748;DHT22;5931;48.832;9.072;2023-03-29T12:15:04;19.40;94.20
11748;DHT22;5931;48.832;9.072;2023-03-29T12:17:54;18.80;94.90
11748;DHT22;5931;48.832;9.072;2023-03-29T12:20:25;18.70;94.20
11748;DHT22;5931;48.832;9.072;2023-03-29T12:22:54;18.50;93.60
11748;DHT22;5931;48.832;9.072;2023-03-29T12:25:30;18.50;94.90
11748;DHT22;5931;48.832;9.072;2023-03-29T12:31:12;18.80;95.70
11748;DHT22;5931;48.832;9.072;2023-03-29T12:34:07;18.80;94.80
11748;DHT22;5931;48.832;9.072;2023-03-29T12:36:53;18.70;94.70
11748;DHT22;5931;48.832;9.072;2023-03-29T12:39:35;18.80;94.30
11748;DHT22;5931;48.832;9.072;2023-03-29T12:42:22;18.30;93.70
11748;DHT22;5931;48.832;9.072;2023-03-29T12:45:13;18.00;94.70
11748;DHT22;5931;48.832;9.072;2023-03-29T12:47:44;17.80;94.50
11748;DHT22;5931;48.832;9.072;2023-03-29T12:53:00;17.80;97.00
11748;DHT22;5931;48.832;9.072;2023-03-29T12:58:31;17.90;98.70
11748;DHT22;5931;48.832;9.072;2023-03-29T13:06:31;18.30;95.90
11748;DHT22;5931;48.832;9.072;2023-03-29T13:09:18;18.40;95.40
11748;DHT22;5931;48.832;9.072;2023-03-29T13:11:50;18.20;96.00
11748;DHT22;5931;48.832;9.072;2023-03-29T13:14:19;18.10;96.10
11748;DHT22;5931;48.832;9.072;2023-03-29T13:16:45;17.90;95.20
11748;DHT22;5931;48.832;9.072;2023-03-29T13:22:16;17.50;95.30
11748;DHT22;5931;48.832;9.072;2023-03-29T13:25:27;17.80;95.80
11748;DHT22;5931;48.832;9.072;2023-03-29T13:28:17;18.00;96.60
11748;DHT22;5931;48.832;9.072;2023-03-29T13:36:50;17.40;98.50
11748;DHT22;5931;48.832;9.072;2023-03-29T13:39:26;17.40;98.70
11748;DHT22;5931;48.832;9.072;2023-03-29T13:42:04;17.30;99.00
11748;DHT22;5931;48.832;9.072;2023-03-29T13:44:41;17.40;99.70
11748;DHT22;5931;48.832;9.072;2023-03-29T13:47:35;17.20;99.40
11748;DHT22;5931;48.832;9.072;2023-03-29T13:50:09;16.90;99.90
11748;DHT22;5931;48.832;9.072;2023-03-29T13:52:40;16.50;99.90
11748;DHT22;5931;48.832;9.072;2023-03-29T13:55:07;16.00;99.90
11748;DHT22;5931;48.832;9.072;2023-03-29T14:03:12;14.10;99.90
11748;DHT22;5931;48.832;9.072;2023-03-29T14:05:41;13.60;99.90
11748;DHT22;5931;48.832;9.072;2023-03-29T14:08:35;13.30;99.90
11748;DHT22;5931;48.832;9.072;2023-03-29T14:11:04;13.20;99.90
11748;DHT22;5931;48.832;9.072;2023-03-29T14:13:31;13.30;99.90
11748;DHT22;5931;48.832;9.072;2023-03-29T14:16:01;13.50;99.90
11748;DHT22;5931;48.832;9.072;2023-03-29T14:18:33;13.70;99.90
11748;DHT22;5931;48.832;9.072;2023-03-29T14:21:01;13.80;99.90
11748;DHT22;5931;48.832;9.072;2023-03-29T14:23:28;13.80;99.90
11748;DHT22;5931;48.832;9.072;2023-03-29T14:26:28;13.90;99.90
11748;DHT22;5931;48.832;9.072;2023-03-29T14:28:56;14.00;99.90
11748;DHT22;5931;48.832;9.072;2023-03-29T14:31:36;14.10;99.90
11748;DHT22;5931;48.832;9.072;2023-03-29T14:34:05;14.10;99.90
11748;DHT22;5931;48.832;9.072;2023-03-29T14:36:32;14.10;99.90
11748;DHT22;5931;48.832;9.072;2023-03-29T14:39:03;14.40;99.90
11748;DHT22;5931;48.832;9.072;2023-03-29T14:41:34;14.70;99.90
11748;DHT22;5931;48.832;9.072;2023-03-29T14:44:03;14.80;99.90
11748;DHT22;5931;48.832;9.072;2023-03-29T14:46:29;14.90;99.90
11748;DHT22;5931;48.832;9.072;2023-03-29T14:48:56;15.00;99.90
11748;DHT22;5931;48.832;9.072;2023-03-29T14:51:23;15.30;99.90
11748;DHT22;5931;48.832;9.072;2023-03-29T14:53:57;15.60;99.90
11748;DHT22;5931;48.832;9.072;2023-03-29T14:56:23;15.70;99.90
11748;DHT22;5931;48.832;9.072;2023-03-29T14:58:54;15.60;99.90
11748;DHT22;5931;48.832;9.072;2023-03-29T15:01:22;15.70;99.90
11748;DHT22;5931;48.832;9.072;2023-03-29T15:06:17;15.70;99.90
11748;DHT22;5931;48.832;9.072;2023-03-29T15:08:44;15.60;99.90
11748;DHT22;5931;48.832;9.072;2023-03-29T15:13:41;15.90;99.90
11748;DHT22;5931;48.832;9.072;2023-03-29T15:16:10;16.00;99.90
11748;DHT22;5931;48.832;9.072;2023-03-29T15:18:39;16.20;99.90
11748;DHT22;5931;48.832;9.072;2023-03-29T15:21:06;16.30;99.90
11748;DHT22;5931;48.832;9.072;2023-03-29T15:23:53;16.40;99.90
11748;DHT22;5931;48.832;9.072;2023-03-29T15:26:25;16.40;99.90
11748;DHT22;5931;48.832;9.072;2023-03-29T15:31:35;18.00;99.90
11748;DHT22;5931;48.832;9.072;2023-03-29T15:36:38;18.00;99.90
11748;DHT22;5931;48.832;9.072;2023-03-29T15:39:13;17.70;99.90
11748;DHT22;5931;48.832;9.072;2023-03-29T15:41:40;17.40;99.90
11748;DHT22;5931;48.832;9.072;2023-03-29T15:44:06;17.20;99.90
11748;DHT22;5931;48.832;9.072;2023-03-29T15:46:32;17.20;99.90
11748;DHT22;5931;48.832;9.072;2023-03-29T15:48:57;17.30;99.90
11748;DHT22;5931;48.832;9.072;2023-03-29T15:51:23;17.20;99.90
11748;DHT22;5931;48.832;9.072;2023-03-29T15:53:49;17.00;99.90
11748;DHT22;5931;48.832;9.072;2023-03-29T15:56:16;16.70;99.90
11748;DHT22;5931;48.832;9.072;2023-03-29T15:58:43;16.60;99.90
11748;DHT22;5931;48.832;9.072;2023-03-29T16:03:38;16.30;99.90
11748;DHT22;5931;48.832;9.072;2023-03-29T16:06:05;16.30;99.90
11748;DHT22;5931;48.832;9.072;2023-03-29T16:08:30;16.00;99.90
11748;DHT22;5931;48.832;9.072;2023-03-29T16:10:56;15.90;99.90
11748;DHT22;5931;48.832;9.072;2023-03-29T16:13:22;15.70;99.90
11748;DHT22;5931;48.832;9.072;2023-03-29T16:15:47;15.60;99.90
11748;DHT22;5931;48.832;9.072;2023-03-29T16:18:13;15.40;99.90
11748;DHT22;5931;48.832;9.072;2023-03-29T16:20:39;15.40;99.90
11748;DHT22;5931;48.832;9.072;2023-03-29T16:23:06;15.30;99.90
11748;DHT22;5931;48.832;9.072;2023-03-29T16:25:37;15.40;99.90
11748;DHT22;5931;48.832;9.072;2023-03-29T16:28:05;15.50;99.90
11748;DHT22;5931;48.832;9.072;2023-03-29T16:30:32;15.30;99.90
11748;DHT22;5931;48.832;9.072;2023-03-29T16:32:58;15.30;99.90
11748;DHT22;5931;48.832;9.072;2023-03-29T16:35:27;15.30;99.90
11748;DHT22;5931;48.832;9.072;2023-03-29T16:37:53;15.20;99.90
11748;DHT22;5931;48.832;9.072;2023-03-29T16:40:19;15.10;99.90
11748;DHT22;5931;48.832;9.072;2023-03-29T16:42:45;15.00;99.90
11748;DHT22;5931;48.832;9.072;2023-03-29T16:45:12;15.00;99.90
11748;DHT22;5931;48.832;9.072;2023-03-29T16:47:38;15.00;99.90
11748;DHT22;5931;48.832;9.072;2023-03-29T16:50:06;14.90;99.90
11748;DHT22;5931;48.832;9.072;2023-03-29T16:52:32;14.80;99.90
11748;DHT22;5931;48.832;9.072;2023-03-29T16:54:58;14.70;99.90
11748;DHT22;5931;48.832;9.072;2023-03-29T16:57:23;14.70;99.90
11748;DHT22;5931;48.832;9.072;2023-03-29T16:59:50;14.50;99.90
11748;DHT22;5931;48.832;9.072;2023-03-29T17:02:16;14.40;99.90
11748;DHT22;5931;48.832;9.072;2023-03-29T17:04:42;14.30;99.90
11748;DHT22;5931;48.832;9.072;2023-03-29T17:07:07;14.20;99.90
11748;DHT22;5931;48.832;9.072;2023-03-29T17:09:33;14.20;99.90
11748;DHT22;5931;48.832;9.072;2023-03-29T17:11:59;14.10;99.90
11748;DHT22;5931;48.832;9.072;2023-03-29T17:14:24;14.00;99.90
11748;DHT22;5931;48.832;9.072;2023-03-29T17:16:52;13.90;99.90
11748;DHT22;5931;48.832;9.072;2023-03-29T17:19:18;13.80;99.90
11748;DHT22;5931;48.832;9.072;2023-03-29T17:21:43;13.70;99.90
11748;DHT22;5931;48.832;9.072;2023-03-29T17:24:09;13.70;99.90
11748;DHT22;5931;48.832;9.072;2023-03-29T17:26:35;13.60;99.90
11748;DHT22;5931;48.832;9.072;2023-03-29T17:29:03;13.60;99.90
11748;DHT22;5931;48.832;9.072;2023-03-29T17:31:29;13.50;99.90
11748;DHT22;5931;48.832;9.072;2023-03-29T17:33:55;13.40;99.90
11748;DHT22;5931;48.832;9.072;2023-03-29T17:36:21;13.30;99.90
11748;DHT22;5931;48.832;9.072;2023-03-29T17:38:51;13.30;99.90
11748;DHT22;5931;48.832;9.072;2023-03-29T17:41:19;13.20;99.90
11748;DHT22;5931;48.832;9.072;2023-03-29T17:43:46;13.10;99.90
11748;DHT22;5931;48.832;9.072;2023-03-29T17:46:12;13.10;99.90
11748;DHT22;5931;48.832;9.072;2023-03-29T17:48:38;13.00;99.90
11748;DHT22;5931;48.832;9.072;2023-03-29T17:51:04;12.90;99.90
11748;DHT22;5931;48.832;9.072;2023-03-29T17:53:30;12.80;99.90
11748;DHT22;5931;48.832;9.072;2023-03-29T17:55:56;12.70;99.90
11748;DHT22;5931;48.832;9.072;2023-03-29T17:58:21;12.60;99.90
11748;DHT22;5931;48.832;9.072;2023-03-29T18:00:47;12.60;99.90
11748;DHT22;5931;48.832;9.072;2023-03-29T18:03:13;12.60;99.90
11748;DHT22;5931;48.832;9.072;2023-03-29T18:05:39;12.60;99.90
11748;DHT22;5931;48.832;9.072;2023-03-29T18:08:05;12.60;99.90
11748;DHT22;5931;48.832;9.072;2023-03-29T18:10:30;12.60;99.90
11748;DHT22;5931;48.832;9.072;2023-03-29T18:12:56;12.50;99.90
11748;DHT22;5931;48.832;9.072;2023-03-29T18:15:22;12.50;99.90
11748;DHT22;5931;48.832;9.072;2023-03-29T18:17:48;12.40;99.90
11748;DHT22;5931;48.832;9.072;2023-03-29T18:20:14;12.40;99.90
11748;DHT22;5931;48.832;9.072;2023-03-29T18:22:41;12.40;99.90
11748;DHT22;5931;48.832;9.072;2023-03-29T18:25:08;12.30;99.90
11748;DHT22;5931;48.832;9.072;2023-03-29T18:27:38;12.30;99.90
11748;DHT22;5931;48.832;9.072;2023-03-29T18:30:05;12.20;99.90